Atqasuk Edward Burnell Sr Memorial Airport
PATQ : now visible

Airfield :











YOU CAN JOIN US ON...

 
LOGIN :

Register | Disclaimer

   EN    FR    IT 

 









Legend :    VFR   Marginal VFR   IFR   Intensive IFR   Very Intensive IFR
Visi :
Ceiling :
>= 8 km
>= 3000ft
5 to 8 km
1000 to 3000 ft
1500m to 5 km
500 to 1000 ft
800 to 1500m
200 to 500 ft
< 800m
< 200 ft
Symbols :   Thunderstorms  Fog  Heavy snow  Heavy precipitations  Wind > 20 kt






- Airport Elevation : 96 ft
- IATA code : ATK


PATQ - Atqasuk Edward Burnell Sr Memorial

CURRENT METAR :
  • 272256Z AUTO 23016KT 10SM CLR M05/M06 A2980 RMK AO2 SNE00 SLP096 P0000 T10501061 FZRANO TSNO

EXPIRED METARs :
  • 272156Z AUTO 24015KT 9SM -SN BKN035 BKN044 M05/M06 A2980 RMK AO2 SNE02B50 SLP098 P0000 T10501056 FZRANO TSNO
  • 272056Z AUTO 24013KT 9SM -SN CLR M06/M07 A2980 RMK AO2 SNB43 SLP098 P0000 60000 T10561067 53002 FZRANO TSNO

TAF N/A
PAZA FIR / North America



MET'MAP, your aeronautical weather chart ! - Copyright ORBIFLY December 2007 - Disclaimer

ORBIFLY MET'MAP TEAM :

Programming & Development : Alexandra Zaïnal
Concept & original design : Baudouin d'Aumeries
Assistance for programming : Marc-Olivier Méhu
Technical & hardware support : Manuel Goepfert

Contact : metmap@orbifly.com




SOURCES & CREDITS :

   NOAA       Earth
Advisory